Time;durP1;ratioP1;P1;durP2;ratioP2;P2;SDS_P1;SDS_P2;PMS_P1;PMS_P2;Temp;Humidity;BMP_temperature;BMP_pressure;BME280_temperature;BME280_humidity;BME280_pressure;Samples;Min_cycle;Max_cycle;Signal;HPM_P1;HPM_P2
2021/12/30 17:43:20;;;;;;;31.20;16.95;;;;;;;;;;5105958;27;20883;-63
2021/12/30 17:45:47;;;;;;;29.30;17.75;;;;;;;;;;5095772;28;20047;-63
2021/12/30 17:48:14;;;;;;;29.50;15.57;;;;;;;;;;5101488;28;20027;-62
2021/12/30 17:50:40;;;;;;;39.80;15.93;;;;;;;;;;5098591;28;20020;-62
2021/12/30 17:53:06;;;;;;;31.48;14.00;;;;;;;;;;5091852;28;20032;-62
2021/12/30 17:55:34;;;;;;;51.70;18.38;;;;;;;;;;5094875;28;20077;-60
2021/12/30 17:58:00;;;;;;;39.03;18.77;;;;;;;;;;5097009;28;20032;-61
2021/12/30 18:00:27;;;;;;;69.45;25.80;;;;;;;;;;5096909;28;20029;-61
2021/12/30 18:02:53;;;;;;;32.13;19.98;;;;;;;;;;5098305;28;20024;-70
2021/12/30 18:05:19;;;;;;;46.75;26.75;;;;;;;;;;5101251;28;20059;-69
2021/12/30 18:07:45;;;;;;;22.67;14.77;;;;;;;;;;5089610;28;20040;-69
2021/12/30 18:10:11;;;;;;;15.18;9.95;;;;;;;;;;5095566;28;20067;-70
2021/12/30 18:12:37;;;;;;;18.27;13.80;;;;;;;;;;5091714;28;20459;-71
2021/12/30 18:15:04;;;;;;;24.50;17.75;;;;;;;;;;5097598;28;20024;-70
2021/12/30 18:17:30;;;;;;;20.08;14.32;;;;;;;;;;5094161;28;20030;-71
2021/12/30 18:19:56;;;;;;;21.33;14.07;;;;;;;;;;5070950;28;20077;-69
2021/12/30 18:22:23;;;;;;;15.07;10.85;;;;;;;;;;5081935;28;20115;-69
2021/12/30 18:24:49;;;;;;;18.52;10.63;;;;;;;;;;5085658;28;20397;-69
2021/12/30 18:27:16;;;;;;;22.55;12.93;;;;;;;;;;5083762;28;20028;-70
2021/12/30 18:29:43;;;;;;;17.27;13.23;;;;;;;;;;5080926;28;20028;-62
2021/12/30 18:32:09;;;;;;;19.63;12.80;;;;;;;;;;5083779;28;20039;-62
2021/12/30 18:34:35;;;;;;;20.10;11.35;;;;;;;;;;5081104;28;20028;-61
2021/12/30 18:37:03;;;;;;;17.25;12.10;;;;;;;;;;5082819;28;20443;-61
2021/12/30 18:39:29;;;;;;;9.93;7.88;;;;;;;;;;5082834;28;20063;-62
2021/12/30 18:41:55;;;;;;;9.43;6.75;;;;;;;;;;5083866;28;20052;-61
2021/12/30 18:44:22;;;;;;;7.40;4.93;;;;;;;;;;5083769;28;20487;-61
2021/12/30 18:46:50;;;;;;;5.32;4.20;;;;;;;;;;5081825;28;20031;-61
2021/12/30 18:49:16;;;;;;;5.00;4.22;;;;;;;;;;5083178;28;20367;-61
2021/12/30 18:51:42;;;;;;;11.40;5.15;;;;;;;;;;5083994;28;20028;-61
2021/12/30 18:54:08;;;;;;;4.93;4.25;;;;;;;;;;5072208;28;20173;-62
2021/12/30 18:56:34;;;;;;;3.10;2.58;;;;;;;;;;5068600;28;20036;-61
2021/12/30 18:59:00;;;;;;;2.72;2.40;;;;;;;;;;5067830;28;20020;-62
2021/12/30 19:01:27;;;;;;;3.85;2.17;;;;;;;;;;5068148;28;20645;-61
2021/12/30 19:03:53;;;;;;;4.28;3.10;;;;;;;;;;5065589;28;20025;-61
2021/12/30 19:06:20;;;;;;;1.60;1.15;;;;;;;;;;5068854;28;20751;-61
2021/12/30 19:08:46;;;;;;;7.72;5.45;;;;;;;;;;5069295;28;20029;-61
2021/12/30 19:11:13;;;;;;;5.78;4.15;;;;;;;;;;5067991;28;20033;-62
2021/12/30 19:13:39;;;;;;;2.95;2.63;;;;;;;;;;5073672;28;20028;-62
2021/12/30 19:16:05;;;;;;;6.97;4.15;;;;;;;;;;5069760;28;20032;-62
2021/12/30 19:18:36;;;;;;;1.45;1.20;;;;;;;;;;5071408;28;20029;-62
2021/12/30 19:21:04;;;;;;;1.70;1.10;;;;;;;;;;5074698;28;20028;-63
2021/12/30 19:23:30;;;;;;;5.68;1.00;;;;;;;;;;5072875;28;20103;-62
2021/12/30 19:25:56;;;;;;;2.78;1.35;;;;;;;;;;5071223;28;20024;-63
2021/12/30 19:28:22;;;;;;;3.70;1.48;;;;;;;;;;5075597;28;20028;-63
2021/12/30 19:30:50;;;;;;;2.30;1.70;;;;;;;;;;5071315;28;20036;-63
2021/12/30 19:33:16;;;;;;;5.45;4.25;;;;;;;;;;5071742;28;20029;-63
2021/12/30 19:35:42;;;;;;;8.57;5.85;;;;;;;;;;5071272;28;20047;-61
2021/12/30 19:38:11;;;;;;;3.65;1.30;;;;;;;;;;5071293;28;20029;-63
2021/12/30 19:40:37;;;;;;;9.68;2.95;;;;;;;;;;5077632;28;20040;-63
2021/12/30 19:43:04;;;;;;;4.53;3.00;;;;;;;;;;5072328;28;20043;-63
2021/12/30 19:45:30;;;;;;;6.70;3.17;;;;;;;;;;5055310;28;20032;-63
2021/12/30 19:48:01;;;;;;;6.43;2.78;;;;;;;;;;5053494;28;20019;-64
2021/12/30 19:50:27;;;;;;;2.47;1.52;;;;;;;;;;5057154;28;20028;-64
2021/12/30 19:52:53;;;;;;;4.05;1.05;;;;;;;;;;5053206;28;20028;-63
2021/12/30 19:55:21;;;;;;;4.70;1.17;;;;;;;;;;5050304;28;20085;-64
2021/12/30 19:57:48;;;;;;;3.13;1.20;;;;;;;;;;5052351;28;20051;-62
2021/12/30 20:00:15;;;;;;;3.85;1.35;;;;;;;;;;5054131;28;20506;-62
2021/12/30 20:02:41;;;;;;;4.68;1.23;;;;;;;;;;5051349;28;20552;-63
2021/12/30 20:05:08;;;;;;;6.28;1.50;;;;;;;;;;5046969;28;21071;-63
2021/12/30 20:07:34;;;;;;;3.70;1.25;;;;;;;;;;5058648;28;20375;-62
2021/12/30 20:10:00;;;;;;;2.45;1.23;;;;;;;;;;5051579;28;20024;-64
2021/12/30 20:12:26;;;;;;;4.75;2.22;;;;;;;;;;5053823;28;20052;-62
2021/12/30 20:14:52;;;;;;;2.03;1.05;;;;;;;;;;5049993;28;20648;-61
2021/12/30 20:17:18;;;;;;;5.35;1.42;;;;;;;;;;5051348;28;20535;-62
2021/12/30 20:19:45;;;;;;;4.90;1.20;;;;;;;;;;5051298;28;20036;-61
2021/12/30 20:22:11;;;;;;;2.03;0.68;;;;;;;;;;5054681;28;20022;-61
2021/12/30 20:24:37;;;;;;;2.75;1.27;;;;;;;;;;5051590;28;20552;-61
2021/12/30 20:27:04;;;;;;;4.55;1.33;;;;;;;;;;5052311;28;20519;-61
2021/12/30 20:29:30;;;;;;;2.63;1.17;;;;;;;;;;5049155;28;20029;-62
2021/12/30 20:31:56;;;;;;;5.05;1.27;;;;;;;;;;5045972;28;20028;-61
2021/12/30 20:34:23;;;;;;;2.45;0.98;;;;;;;;;;5049020;28;20475;-61
2021/12/30 20:36:49;;;;;;;1.92;0.75;;;;;;;;;;5047497;28;20427;-62
2021/12/30 20:39:15;;;;;;;2.53;1.08;;;;;;;;;;5048491;28;20040;-61
2021/12/30 20:41:42;;;;;;;4.78;1.02;;;;;;;;;;5047043;28;20106;-60
2021/12/30 20:44:08;;;;;;;1.48;0.60;;;;;;;;;;5044340;28;20361;-61
2021/12/30 20:46:35;;;;;;;5.35;0.77;;;;;;;;;;5044294;28;20020;-60
2021/12/30 20:49:01;;;;;;;2.28;1.00;;;;;;;;;;5046816;28;20024;-60
2021/12/30 20:51:27;;;;;;;3.58;0.68;;;;;;;;;;5049093;28;20373;-61
2021/12/30 20:53:53;;;;;;;2.53;0.88;;;;;;;;;;5048986;28;20040;-61
2021/12/30 20:56:22;;;;;;;1.55;0.73;;;;;;;;;;5052108;28;20032;-61
2021/12/30 20:58:48;;;;;;;1.42;0.73;;;;;;;;;;5055494;28;20525;-61
2021/12/30 21:01:20;;;;;;;2.55;1.23;;;;;;;;;;5054491;28;20506;-62
2021/12/30 21:04:06;;;;;;;3.55;2.15;;;;;;;;;;5050807;28;20414;-61
2021/12/30 21:06:35;;;;;;;4.95;1.38;;;;;;;;;;5051107;28;20489;-61
2021/12/30 21:09:06;;;;;;;3.08;1.23;;;;;;;;;;5056452;28;20360;-61
2021/12/30 21:11:35;;;;;;;3.10;1.08;;;;;;;;;;5072921;28;20059;-61
2021/12/30 21:14:02;;;;;;;1.60;0.70;;;;;;;;;;5080291;28;20024;-61
2021/12/30 21:16:28;;;;;;;5.00;1.50;;;;;;;;;;5079215;28;20466;-62
2021/12/30 21:18:54;;;;;;;2.83;1.02;;;;;;;;;;5080267;28;20463;-62
2021/12/30 21:21:20;;;;;;;3.70;1.40;;;;;;;;;;5078402;28;20039;-62
2021/12/30 21:23:46;;;;;;;2.25;1.00;;;;;;;;;;5077434;28;20020;-64
2021/12/30 21:26:17;;;;;;;3.13;0.80;;;;;;;;;;5071137;28;20094;-62
2021/12/30 21:28:44;;;;;;;3.53;0.95;;;;;;;;;;5080857;28;20249;-62
2021/12/30 21:31:10;;;;;;;3.65;0.82;;;;;;;;;;5072418;28;20063;-62
2021/12/30 21:33:36;;;;;;;1.58;0.70;;;;;;;;;;5070913;28;20095;-63
2021/12/30 21:36:05;;;;;;;2.53;1.02;;;;;;;;;;5071208;28;20086;-62
2021/12/30 21:38:31;;;;;;;1.80;0.70;;;;;;;;;;5083967;28;20020;-62
2021/12/30 21:40:57;;;;;;;9.00;2.13;;;;;;;;;;5075822;28;20082;-62
2021/12/30 21:43:27;;;;;;;3.97;1.08;;;;;;;;;;5078634;28;20040;-62
2021/12/30 21:49:05;;;;;;;3.85;1.30;;;;;;;;;;5024058;28;20025;-62
2021/12/30 21:55:23;;;;;;;4.03;1.23;;;;;;;;;;4968693;28;20096;-63
2021/12/30 21:57:59;;;;;;;3.78;1.35;;;;;;;;;;5015687;28;20032;-62
2021/12/30 22:00:41;;;;;;;4.60;1.08;;;;;;;;;;5028326;28;20033;-62
2021/12/30 22:03:07;;;;;;;3.97;0.80;;;;;;;;;;5030538;28;20048;-62
2021/12/30 22:05:34;;;;;;;3.28;1.20;;;;;;;;;;5038961;28;20594;-62
2021/12/30 22:08:06;;;;;;;4.40;1.42;;;;;;;;;;5040517;28;20451;-62
2021/12/30 22:11:10;;;;;;;5.43;1.30;;;;;;;;;;5045912;28;20116;-62
2021/12/30 22:13:42;;;;;;;5.05;1.52;;;;;;;;;;5051551;28;20127;-63
2021/12/30 22:16:11;;;;;;;6.47;2.60;;;;;;;;;;5073007;28;20035;-62
2021/12/30 22:18:41;;;;;;;7.72;1.65;;;;;;;;;;5074912;28;20503;-62
2021/12/30 22:21:13;;;;;;;7.95;1.70;;;;;;;;;;5068230;28;20044;-62
2021/12/30 22:23:39;;;;;;;8.90;2.13;;;;;;;;;;5073505;28;20066;-62
2021/12/30 22:26:10;;;;;;;8.77;1.98;;;;;;;;;;5078053;28;20028;-62
2021/12/30 22:28:59;;;;;;;5.50;1.83;;;;;;;;;;5081543;28;20024;-62
2021/12/30 22:31:46;;;;;;;6.47;1.60;;;;;;;;;;5082554;28;20051;-62
2021/12/30 22:34:26;;;;;;;6.10;1.42;;;;;;;;;;5085871;28;20063;-62
2021/12/30 22:37:14;;;;;;;;;;;;;;;;;;;;;
2021/12/30 22:42:50;;;;;;;5.18;1.38;;;;;;;;;;5046649;28;20056;-62
2021/12/30 22:45:38;;;;;;;4.40;1.23;;;;;;;;;;5073530;28;20035;-62
2021/12/30 22:48:48;;;;;;;9.23;1.40;;;;;;;;;;5072576;28;20190;-62
2021/12/30 22:51:17;;;;;;;7.95;2.25;;;;;;;;;;5086458;28;20503;-62
2021/12/30 22:54:04;;;;;;;12.63;1.90;;;;;;;;;;5083564;28;20028;-62
2021/12/30 22:56:30;;;;;;;8.98;1.85;;;;;;;;;;5078485;28;20039;-61
2021/12/30 22:58:57;;;;;;;5.70;1.70;;;;;;;;;;5083201;28;20021;-61
2021/12/30 23:01:23;;;;;;;12.18;2.50;;;;;;;;;;5087405;28;20028;-61
2021/12/30 23:03:54;;;;;;;9.38;2.15;;;;;;;;;;5089671;28;20024;-62
2021/12/30 23:06:20;;;;;;;12.88;2.42;;;;;;;;;;5080512;28;20040;-62
2021/12/30 23:08:51;;;;;;;8.20;2.05;;;;;;;;;;5074550;28;20021;-62
2021/12/30 23:11:41;;;;;;;7.80;1.90;;;;;;;;;;5072281;28;20032;-62
